RYR771 EPKT-LTBJ
Flight info
| Callsign | RYR771 |
|---|---|
| Flight time | 2h 28m |
| Altitude | 37000 |
| Route | REGTO3L REGTO T195 RAZEC N133 KEKED DCT NARKA DCT RODIP UN131 DUGLA UN618 BERGO BERGO1F |
| Aircraft | B738/M-SDE2E3FGHIRWXY/LB1 |
Departure
| Time | 2026-04-29 15:41 |
|---|---|
| Airport | Katowice Wojciech Korfanty International Airport (EPKT) |
Arrival
| Time | 2026-04-29 18:10 |
|---|---|
| Airport | Adnan Menderes International Airport (LTBJ) |
| Time | Latitude | Longitude | Altitude | Speed | Heading |
|---|---|---|---|---|---|
| 2026-04-29 15:11 | 50.47158 | 19.08043 | 995 ft | 0 kts | 200° |
| 2026-04-29 15:33 | 50.47160 | 19.08045 | 999 ft | 3 kts | 200° |
| 2026-04-29 15:34 | 50.47185 | 19.08057 | 996 ft | 4 kts | 194° |
| 2026-04-29 15:34 | 50.47210 | 19.08070 | 996 ft | 4 kts | 206° |
| 2026-04-29 15:34 | 50.47231 | 19.08094 | 999 ft | 4 kts | 240° |
| 2026-04-29 15:34 | 50.47236 | 19.08117 | 996 ft | 1 kts | 270° |
| 2026-04-29 15:35 | 50.47236 | 19.08121 | 996 ft | 0 kts | 270° |
| 2026-04-29 15:36 | 50.47236 | 19.08119 | 996 ft | 2 kts | 270° |
| 2026-04-29 15:36 | 50.47236 | 19.08056 | 999 ft | 9 kts | 270° |
| 2026-04-29 15:37 | 50.47236 | 19.07920 | 994 ft | 15 kts | 270° |
| 2026-04-29 15:37 | 50.47236 | 19.07742 | 993 ft | 16 kts | 270° |
| 2026-04-29 15:37 | 50.47237 | 19.07566 | 992 ft | 16 kts | 270° |
| 2026-04-29 15:37 | 50.47286 | 19.07445 | 996 ft | 15 kts | 354° |
| 2026-04-29 15:38 | 50.47389 | 19.07445 | 997 ft | 15 kts | 2° |
| 2026-04-29 15:38 | 50.47436 | 19.07331 | 990 ft | 14 kts | 261° |
| 2026-04-29 15:38 | 50.47426 | 19.07182 | 989 ft | 13 kts | 275° |
| 2026-04-29 15:38 | 50.47430 | 19.07040 | 988 ft | 13 kts | 271° |
| 2026-04-29 15:39 | 50.47432 | 19.06894 | 986 ft | 15 kts | 271° |
| 2026-04-29 15:39 | 50.47432 | 19.06702 | 992 ft | 20 kts | 268° |
| 2026-04-29 15:39 | 50.47432 | 19.06458 | 983 ft | 24 kts | 270° |
| 2026-04-29 15:39 | 50.47433 | 19.06180 | 989 ft | 24 kts | 270° |
| 2026-04-29 15:40 | 50.47467 | 19.05977 | 981 ft | 16 kts | 334° |
| 2026-04-29 15:40 | 50.47523 | 19.05979 | 981 ft | 6 kts | 6° |
| 2026-04-29 15:40 | 50.47568 | 19.05982 | 981 ft | 8 kts | 2° |
| 2026-04-29 15:40 | 50.47604 | 19.06039 | 981 ft | 8 kts | 73° |
| 2026-04-29 15:41 | 50.47607 | 19.06229 | 979 ft | 49 kts | 90° |
| 2026-04-29 15:41 | 50.47606 | 19.07266 | 996 ft | 137 kts | 89° |
| 2026-04-29 15:41 | 50.47588 | 19.09117 | 1264 ft | 191 kts | 87° |
| 2026-04-29 15:41 | 50.47559 | 19.11268 | 2297 ft | 205 kts | 85° |
| 2026-04-29 15:42 | 50.47554 | 19.13487 | 3596 ft | 202 kts | 85° |
| 2026-04-29 15:42 | 50.47571 | 19.15831 | 4135 ft | 231 kts | 86° |
| 2026-04-29 15:42 | 50.47579 | 19.18514 | 4599 ft | 252 kts | 86° |
| 2026-04-29 15:42 | 50.47579 | 19.21282 | 5647 ft | 252 kts | 86° |
| 2026-04-29 15:43 | 50.47568 | 19.24100 | 6475 ft | 263 kts | 88° |
| 2026-04-29 15:43 | 50.47540 | 19.26948 | 7495 ft | 261 kts | 87° |
| 2026-04-29 15:43 | 50.47526 | 19.29811 | 8343 ft | 266 kts | 87° |
| 2026-04-29 15:43 | 50.47515 | 19.32737 | 9229 ft | 268 kts | 87° |
| 2026-04-29 15:44 | 50.47504 | 19.35678 | 10013 ft | 273 kts | 87° |
| 2026-04-29 15:44 | 50.47492 | 19.38619 | 10356 ft | 274 kts | 87° |
| 2026-04-29 15:44 | 50.47477 | 19.41673 | 10356 ft | 277 kts | 87° |
| 2026-04-29 15:44 | 50.47462 | 19.44637 | 10360 ft | 275 kts | 87° |
| 2026-04-29 15:45 | 50.47445 | 19.47633 | 10365 ft | 274 kts | 87° |
| 2026-04-29 15:45 | 50.47427 | 19.50617 | 10368 ft | 274 kts | 87° |
| 2026-04-29 15:45 | 50.47410 | 19.53613 | 10367 ft | 274 kts | 87° |
| 2026-04-29 15:45 | 50.47391 | 19.56613 | 10353 ft | 275 kts | 87° |
| 2026-04-29 15:46 | 50.47371 | 19.59615 | 10352 ft | 275 kts | 87° |
| 2026-04-29 15:46 | 50.47351 | 19.62613 | 10350 ft | 275 kts | 87° |
| 2026-04-29 15:46 | 50.47331 | 19.65626 | 10364 ft | 278 kts | 87° |
| 2026-04-29 15:46 | 50.47312 | 19.68753 | 10525 ft | 299 kts | 88° |
| 2026-04-29 15:47 | 50.47291 | 19.72185 | 10871 ft | 318 kts | 88° |
| 2026-04-29 15:47 | 50.47266 | 19.75709 | 11573 ft | 326 kts | 88° |
| 2026-04-29 15:47 | 50.47239 | 19.79229 | 12396 ft | 329 kts | 88° |
| 2026-04-29 15:47 | 50.47210 | 19.82850 | 13166 ft | 335 kts | 88° |
| 2026-04-29 15:48 | 50.47138 | 19.86531 | 13929 ft | 342 kts | 94° |
| 2026-04-29 15:48 | 50.46380 | 19.90111 | 14639 ft | 353 kts | 118° |
| 2026-04-29 15:48 | 50.44769 | 19.93046 | 15383 ft | 361 kts | 140° |
| 2026-04-29 15:48 | 50.42721 | 19.95357 | 16121 ft | 365 kts | 143° |
| 2026-04-29 15:49 | 50.40595 | 19.97599 | 16792 ft | 371 kts | 144° |
| 2026-04-29 15:49 | 50.38433 | 19.99850 | 17475 ft | 375 kts | 144° |
| 2026-04-29 15:49 | 50.36252 | 20.02133 | 18174 ft | 379 kts | 144° |
| 2026-04-29 15:49 | 50.34052 | 20.04456 | 18821 ft | 384 kts | 144° |
| 2026-04-29 15:50 | 50.31829 | 20.06821 | 19391 ft | 388 kts | 144° |
| 2026-04-29 15:50 | 50.29589 | 20.09212 | 19968 ft | 393 kts | 144° |
| 2026-04-29 15:50 | 50.27318 | 20.11641 | 20547 ft | 397 kts | 144° |
| 2026-04-29 15:50 | 50.25026 | 20.14090 | 21087 ft | 402 kts | 144° |
| 2026-04-29 15:51 | 50.22721 | 20.16552 | 21616 ft | 406 kts | 144° |
| 2026-04-29 15:51 | 50.20358 | 20.19074 | 22149 ft | 411 kts | 144° |
| 2026-04-29 15:51 | 50.17982 | 20.21605 | 22679 ft | 416 kts | 145° |
| 2026-04-29 15:51 | 50.15580 | 20.24160 | 23186 ft | 420 kts | 145° |
| 2026-04-29 15:52 | 50.13045 | 20.26467 | 23641 ft | 426 kts | 158° |
| 2026-04-29 15:52 | 50.10260 | 20.28066 | 24109 ft | 429 kts | 162° |
| 2026-04-29 15:52 | 50.07422 | 20.29554 | 24535 ft | 431 kts | 162° |
| 2026-04-29 15:52 | 50.04570 | 20.31055 | 24974 ft | 434 kts | 162° |
| 2026-04-29 15:53 | 50.01713 | 20.32608 | 25397 ft | 436 kts | 162° |
| 2026-04-29 15:53 | 49.98851 | 20.34199 | 25831 ft | 438 kts | 162° |
| 2026-04-29 15:53 | 49.95979 | 20.35808 | 26281 ft | 440 kts | 162° |
| 2026-04-29 15:53 | 49.93096 | 20.37422 | 26737 ft | 441 kts | 162° |
| 2026-04-29 15:54 | 49.90205 | 20.39033 | 27189 ft | 442 kts | 163° |
| 2026-04-29 15:54 | 49.87310 | 20.40642 | 27652 ft | 443 kts | 163° |
| 2026-04-29 15:54 | 49.84402 | 20.42256 | 28132 ft | 443 kts | 163° |
| 2026-04-29 15:54 | 49.81501 | 20.43865 | 28614 ft | 444 kts | 163° |
| 2026-04-29 15:55 | 49.78593 | 20.45476 | 29092 ft | 444 kts | 163° |
| 2026-04-29 15:55 | 49.75682 | 20.47087 | 29595 ft | 443 kts | 164° |
| 2026-04-29 15:55 | 49.72780 | 20.48691 | 30096 ft | 443 kts | 164° |
| 2026-04-29 15:55 | 49.69881 | 20.50292 | 30558 ft | 442 kts | 164° |
| 2026-04-29 15:56 | 49.67041 | 20.51858 | 30974 ft | 441 kts | 164° |
| 2026-04-29 15:56 | 49.64105 | 20.53476 | 31408 ft | 440 kts | 164° |
| 2026-04-29 15:56 | 49.61226 | 20.55059 | 31843 ft | 438 kts | 164° |
| 2026-04-29 15:56 | 49.58399 | 20.56612 | 32277 ft | 436 kts | 163° |
| 2026-04-29 15:57 | 49.55554 | 20.58175 | 32716 ft | 434 kts | 163° |
| 2026-04-29 15:57 | 49.52720 | 20.59735 | 33175 ft | 431 kts | 163° |
| 2026-04-29 15:57 | 49.49901 | 20.61287 | 33638 ft | 428 kts | 163° |
| 2026-04-29 15:57 | 49.47111 | 20.62821 | 34096 ft | 425 kts | 163° |
| 2026-04-29 15:58 | 49.44338 | 20.64343 | 34518 ft | 421 kts | 163° |
| 2026-04-29 15:58 | 49.41597 | 20.65877 | 34909 ft | 418 kts | 158° |
| 2026-04-29 15:58 | 49.39108 | 20.68194 | 35086 ft | 423 kts | 138° |
| 2026-04-29 15:59 | 49.34828 | 20.74596 | 35195 ft | 436 kts | 135° |
| 2026-04-29 15:59 | 49.31232 | 20.80126 | 35352 ft | 444 kts | 135° |
| 2026-04-29 15:59 | 49.29029 | 20.83460 | 35543 ft | 446 kts | 136° |
| 2026-04-29 16:00 | 49.26812 | 20.86779 | 35823 ft | 445 kts | 136° |
| 2026-04-29 16:00 | 49.24596 | 20.90074 | 36127 ft | 444 kts | 136° |
| 2026-04-29 16:00 | 49.22382 | 20.93358 | 36380 ft | 443 kts | 136° |
| 2026-04-29 16:00 | 49.20164 | 20.96642 | 36545 ft | 446 kts | 136° |
| 2026-04-29 16:01 | 49.17922 | 20.99960 | 36575 ft | 451 kts | 137° |
| 2026-04-29 16:01 | 49.13226 | 21.06436 | 36655 ft | 460 kts | 147° |
| 2026-04-29 16:02 | 49.07489 | 21.10758 | 36744 ft | 462 kts | 167° |
| 2026-04-29 16:02 | 49.01183 | 21.12984 | 36831 ft | 469 kts | 171° |
| 2026-04-29 16:03 | 48.94766 | 21.15274 | 36911 ft | 478 kts | 170° |
| 2026-04-29 16:03 | 48.88248 | 21.17634 | 37102 ft | 483 kts | 170° |
| 2026-04-29 16:03 | 48.84978 | 21.18815 | 37264 ft | 483 kts | 170° |
| 2026-04-29 16:04 | 48.81707 | 21.19992 | 37244 ft | 484 kts | 171° |
| 2026-04-29 16:04 | 48.75166 | 21.22342 | 37253 ft | 482 kts | 171° |
| 2026-04-29 16:05 | 48.68667 | 21.24667 | 37257 ft | 480 kts | 171° |
| 2026-04-29 16:05 | 48.62129 | 21.26551 | 37262 ft | 476 kts | 175° |
| 2026-04-29 16:06 | 48.55598 | 21.28209 | 37266 ft | 476 kts | 175° |
| 2026-04-29 16:06 | 48.49144 | 21.30326 | 37263 ft | 481 kts | 168° |
| 2026-04-29 16:07 | 48.42719 | 21.33299 | 37252 ft | 484 kts | 167° |
| 2026-04-29 16:07 | 48.36278 | 21.36358 | 37240 ft | 486 kts | 167° |
| 2026-04-29 16:08 | 48.29794 | 21.39357 | 37239 ft | 489 kts | 167° |
| 2026-04-29 16:08 | 48.23275 | 21.42316 | 37232 ft | 490 kts | 168° |
| 2026-04-29 16:09 | 48.16732 | 21.45267 | 37240 ft | 492 kts | 168° |
| 2026-04-29 16:09 | 48.10169 | 21.48222 | 37236 ft | 493 kts | 168° |
| 2026-04-29 16:10 | 48.03599 | 21.51175 | 37240 ft | 493 kts | 168° |
| 2026-04-29 16:10 | 47.97026 | 21.54123 | 37238 ft | 493 kts | 168° |
| 2026-04-29 16:11 | 47.90464 | 21.57058 | 37230 ft | 492 kts | 168° |
| 2026-04-29 16:11 | 47.83918 | 21.59977 | 37226 ft | 490 kts | 168° |
| 2026-04-29 16:12 | 47.77393 | 21.62880 | 37220 ft | 489 kts | 168° |
| 2026-04-29 16:12 | 47.70882 | 21.65769 | 37207 ft | 487 kts | 168° |
| 2026-04-29 16:13 | 47.64399 | 21.68637 | 37208 ft | 486 kts | 168° |
| 2026-04-29 16:13 | 47.57933 | 21.71491 | 37205 ft | 484 kts | 168° |
| 2026-04-29 16:14 | 47.52371 | 21.73939 | 37217 ft | 483 kts | 168° |
| 2026-04-29 16:37 | 47.50537 | 21.74744 | 37104 ft | 482 kts | 167° |
| 2026-04-29 16:37 | 47.47332 | 21.76152 | 37146 ft | 480 kts | 167° |
| 2026-04-29 16:37 | 47.42019 | 21.78483 | 37204 ft | 478 kts | 167° |
| 2026-04-29 16:38 | 47.34559 | 21.81745 | 37198 ft | 478 kts | 167° |
| 2026-04-29 16:38 | 47.28182 | 21.84527 | 37210 ft | 478 kts | 167° |
| 2026-04-29 16:39 | 47.21836 | 21.87471 | 37190 ft | 480 kts | 164° |
| 2026-04-29 16:39 | 47.15570 | 21.90864 | 37189 ft | 481 kts | 163° |
| 2026-04-29 16:40 | 47.09309 | 21.94329 | 37181 ft | 482 kts | 163° |
| 2026-04-29 16:40 | 47.03006 | 21.97770 | 37186 ft | 483 kts | 163° |
| 2026-04-29 16:41 | 46.96700 | 22.01169 | 37181 ft | 483 kts | 163° |
| 2026-04-29 16:41 | 46.90383 | 22.04553 | 37185 ft | 484 kts | 163° |
| 2026-04-29 16:42 | 46.84068 | 22.07928 | 37181 ft | 483 kts | 163° |
| 2026-04-29 16:42 | 46.77749 | 22.11298 | 37180 ft | 483 kts | 163° |
| 2026-04-29 16:43 | 46.71433 | 22.14659 | 37178 ft | 483 kts | 163° |
| 2026-04-29 16:43 | 46.65125 | 22.18008 | 37171 ft | 482 kts | 163° |
| 2026-04-29 16:44 | 46.58819 | 22.21347 | 37160 ft | 482 kts | 163° |
| 2026-04-29 16:44 | 46.52528 | 22.24670 | 37161 ft | 481 kts | 163° |
| 2026-04-29 16:45 | 46.46265 | 22.27970 | 37149 ft | 480 kts | 163° |
| 2026-04-29 16:45 | 46.40023 | 22.31251 | 37148 ft | 478 kts | 163° |
| 2026-04-29 16:46 | 46.34792 | 22.33995 | 37140 ft | 477 kts | 163° |
| 2026-04-29 16:46 | 46.28573 | 22.37249 | 37146 ft | 475 kts | 163° |
| 2026-04-29 16:47 | 46.22356 | 22.40494 | 37124 ft | 474 kts | 163° |
| 2026-04-29 16:47 | 46.16153 | 22.43724 | 37122 ft | 474 kts | 163° |
| 2026-04-29 16:48 | 46.09965 | 22.46938 | 37133 ft | 473 kts | 163° |
| 2026-04-29 16:48 | 46.03771 | 22.50148 | 37139 ft | 472 kts | 163° |
| 2026-04-29 16:49 | 45.97598 | 22.53339 | 37118 ft | 472 kts | 163° |
| 2026-04-29 16:49 | 45.91414 | 22.56529 | 37130 ft | 471 kts | 163° |
| 2026-04-29 16:50 | 45.85246 | 22.59703 | 37133 ft | 471 kts | 163° |
| 2026-04-29 16:50 | 45.79077 | 22.62869 | 37129 ft | 471 kts | 163° |
| 2026-04-29 16:51 | 45.72908 | 22.66028 | 37127 ft | 471 kts | 163° |
| 2026-04-29 16:51 | 45.66778 | 22.69161 | 37135 ft | 471 kts | 163° |
| 2026-04-29 16:52 | 45.60609 | 22.72305 | 37121 ft | 471 kts | 163° |
| 2026-04-29 16:52 | 45.54442 | 22.75441 | 37135 ft | 471 kts | 163° |
| 2026-04-29 16:53 | 45.48259 | 22.78578 | 37129 ft | 471 kts | 163° |
| 2026-04-29 16:53 | 45.42081 | 22.81706 | 37135 ft | 471 kts | 163° |
| 2026-04-29 16:54 | 45.35897 | 22.84828 | 37120 ft | 472 kts | 163° |
| 2026-04-29 16:54 | 45.29713 | 22.87944 | 37131 ft | 470 kts | 163° |
| 2026-04-29 16:55 | 45.23550 | 22.91043 | 37104 ft | 469 kts | 163° |
| 2026-04-29 16:55 | 45.17407 | 22.94124 | 37118 ft | 468 kts | 163° |
| 2026-04-29 16:56 | 45.11261 | 22.97199 | 37106 ft | 469 kts | 163° |
| 2026-04-29 16:56 | 45.05147 | 23.00250 | 37118 ft | 469 kts | 163° |
| 2026-04-29 16:57 | 44.98991 | 23.03317 | 37098 ft | 469 kts | 163° |
| 2026-04-29 16:57 | 44.92842 | 23.06373 | 37110 ft | 469 kts | 163° |
| 2026-04-29 16:58 | 44.86689 | 23.09424 | 37104 ft | 468 kts | 163° |
| 2026-04-29 16:58 | 44.80538 | 23.12467 | 37103 ft | 468 kts | 163° |
| 2026-04-29 16:59 | 44.74394 | 23.15499 | 37107 ft | 468 kts | 163° |
| 2026-04-29 16:59 | 44.68257 | 23.18522 | 37109 ft | 467 kts | 163° |
| 2026-04-29 17:00 | 44.62123 | 23.21537 | 37100 ft | 467 kts | 163° |
| 2026-04-29 17:00 | 44.56004 | 23.24538 | 37113 ft | 465 kts | 163° |
| 2026-04-29 17:01 | 44.49902 | 23.27522 | 37129 ft | 464 kts | 163° |
| 2026-04-29 17:01 | 44.43797 | 23.30501 | 37114 ft | 464 kts | 163° |
| 2026-04-29 17:02 | 44.37709 | 23.33466 | 37124 ft | 463 kts | 163° |
| 2026-04-29 17:02 | 44.31614 | 23.36428 | 37124 ft | 463 kts | 163° |
| 2026-04-29 17:03 | 44.25527 | 23.39379 | 37126 ft | 463 kts | 164° |
| 2026-04-29 17:03 | 44.19435 | 23.42326 | 37128 ft | 464 kts | 164° |
| 2026-04-29 17:04 | 44.13339 | 23.45269 | 37129 ft | 464 kts | 164° |
| 2026-04-29 17:04 | 44.07234 | 23.48209 | 37132 ft | 464 kts | 164° |
| 2026-04-29 17:05 | 44.01120 | 23.51148 | 37131 ft | 465 kts | 164° |
| 2026-04-29 17:05 | 43.94997 | 23.54084 | 37130 ft | 466 kts | 164° |
| 2026-04-29 17:06 | 43.88870 | 23.57017 | 37132 ft | 466 kts | 164° |
| 2026-04-29 17:06 | 43.82734 | 23.59947 | 37135 ft | 467 kts | 164° |
| 2026-04-29 17:07 | 43.76624 | 23.62858 | 37132 ft | 468 kts | 164° |
| 2026-04-29 17:07 | 43.70471 | 23.65783 | 37132 ft | 468 kts | 164° |
| 2026-04-29 17:08 | 43.64308 | 23.68707 | 37133 ft | 468 kts | 165° |
| 2026-04-29 17:08 | 43.58150 | 23.71622 | 37137 ft | 468 kts | 165° |
| 2026-04-29 17:09 | 43.51991 | 23.74532 | 37141 ft | 468 kts | 165° |
| 2026-04-29 17:09 | 43.45836 | 23.77433 | 37136 ft | 468 kts | 165° |
| 2026-04-29 17:10 | 43.39680 | 23.80328 | 37137 ft | 467 kts | 165° |
| 2026-04-29 17:10 | 43.33535 | 23.83212 | 37141 ft | 467 kts | 165° |
| 2026-04-29 17:11 | 43.27392 | 23.86089 | 37135 ft | 466 kts | 165° |
| 2026-04-29 17:11 | 43.21255 | 23.88957 | 37134 ft | 466 kts | 165° |
| 2026-04-29 17:12 | 43.15130 | 23.91813 | 37139 ft | 465 kts | 165° |
| 2026-04-29 17:12 | 43.10040 | 23.94182 | 37142 ft | 464 kts | 165° |
| 2026-04-29 17:13 | 43.02886 | 23.97504 | 37108 ft | 464 kts | 165° |
| 2026-04-29 17:13 | 42.96797 | 24.00327 | 37123 ft | 462 kts | 165° |
| 2026-04-29 17:14 | 42.90743 | 24.03125 | 37125 ft | 462 kts | 165° |
| 2026-04-29 17:14 | 42.84613 | 24.05953 | 37117 ft | 463 kts | 165° |
| 2026-04-29 17:15 | 42.78548 | 24.08746 | 37119 ft | 464 kts | 165° |
| 2026-04-29 17:15 | 42.72426 | 24.11558 | 37119 ft | 465 kts | 165° |
| 2026-04-29 17:16 | 42.66295 | 24.14370 | 37111 ft | 466 kts | 165° |
| 2026-04-29 17:16 | 42.60149 | 24.17182 | 37111 ft | 467 kts | 165° |
| 2026-04-29 17:17 | 42.53990 | 24.19995 | 37104 ft | 467 kts | 165° |
| 2026-04-29 17:17 | 42.47828 | 24.22803 | 37101 ft | 467 kts | 165° |
| 2026-04-29 17:18 | 42.41670 | 24.25604 | 37085 ft | 467 kts | 165° |
| 2026-04-29 17:18 | 42.35522 | 24.28395 | 37096 ft | 465 kts | 165° |
| 2026-04-29 17:19 | 42.29354 | 24.31187 | 37109 ft | 471 kts | 167° |
| 2026-04-29 17:19 | 42.23089 | 24.34013 | 37085 ft | 477 kts | 167° |
| 2026-04-29 17:20 | 42.16787 | 24.36857 | 37094 ft | 478 kts | 167° |
| 2026-04-29 17:20 | 42.10473 | 24.39701 | 37092 ft | 479 kts | 167° |
| 2026-04-29 17:21 | 42.04154 | 24.42540 | 37100 ft | 478 kts | 167° |
| 2026-04-29 17:21 | 41.97844 | 24.45369 | 37051 ft | 477 kts | 167° |
| 2026-04-29 17:22 | 41.91569 | 24.48175 | 37082 ft | 476 kts | 167° |
| 2026-04-29 17:22 | 41.85296 | 24.50974 | 37079 ft | 475 kts | 167° |
| 2026-04-29 17:23 | 41.79024 | 24.53768 | 37087 ft | 474 kts | 167° |
| 2026-04-29 17:23 | 41.73065 | 24.57693 | 37082 ft | 485 kts | 147° |
| 2026-04-29 17:24 | 41.67812 | 24.63378 | 37091 ft | 486 kts | 143° |
| 2026-04-29 17:24 | 41.62617 | 24.69143 | 37093 ft | 485 kts | 144° |
| 2026-04-29 17:25 | 41.57440 | 24.74801 | 37099 ft | 484 kts | 144° |
| 2026-04-29 17:25 | 41.52203 | 24.80456 | 37090 ft | 484 kts | 144° |
| 2026-04-29 17:26 | 41.46970 | 24.86081 | 37096 ft | 483 kts | 144° |
| 2026-04-29 17:26 | 41.41740 | 24.91692 | 37098 ft | 482 kts | 144° |
| 2026-04-29 17:27 | 41.36511 | 24.97292 | 37097 ft | 482 kts | 144° |
| 2026-04-29 17:27 | 41.31285 | 25.02880 | 37097 ft | 482 kts | 144° |
| 2026-04-29 17:28 | 41.26048 | 25.08466 | 37093 ft | 483 kts | 144° |
| 2026-04-29 17:28 | 41.20809 | 25.14045 | 37086 ft | 483 kts | 144° |
| 2026-04-29 17:29 | 41.15562 | 25.19618 | 37090 ft | 482 kts | 144° |
| 2026-04-29 17:29 | 41.11207 | 25.24235 | 37079 ft | 482 kts | 144° |
| 2026-04-29 17:30 | 41.05087 | 25.30710 | 37086 ft | 481 kts | 144° |
| 2026-04-29 17:30 | 40.99857 | 25.36232 | 37083 ft | 480 kts | 144° |
| 2026-04-29 17:31 | 40.94630 | 25.41739 | 37090 ft | 480 kts | 144° |
| 2026-04-29 17:31 | 40.89408 | 25.47228 | 37085 ft | 479 kts | 144° |
| 2026-04-29 17:32 | 40.84187 | 25.52706 | 37086 ft | 479 kts | 144° |
| 2026-04-29 17:32 | 40.78971 | 25.58167 | 37085 ft | 478 kts | 144° |
| 2026-04-29 17:33 | 40.73754 | 25.63617 | 37074 ft | 478 kts | 144° |
| 2026-04-29 17:33 | 40.68540 | 25.69054 | 37079 ft | 478 kts | 144° |
| 2026-04-29 17:34 | 40.63326 | 25.74479 | 37077 ft | 478 kts | 144° |
| 2026-04-29 17:34 | 40.58112 | 25.79895 | 37082 ft | 477 kts | 144° |
| 2026-04-29 17:35 | 40.51171 | 25.87091 | 37084 ft | 477 kts | 143° |
| 2026-04-29 17:36 | 40.46483 | 25.93289 | 37093 ft | 480 kts | 133° |
| 2026-04-29 17:36 | 40.42131 | 25.99942 | 37075 ft | 480 kts | 132° |
| 2026-04-29 17:37 | 40.37766 | 26.06570 | 37076 ft | 480 kts | 133° |
| 2026-04-29 17:37 | 40.33366 | 26.13145 | 37080 ft | 480 kts | 133° |
| 2026-04-29 17:38 | 40.28951 | 26.19699 | 37076 ft | 480 kts | 133° |
| 2026-04-29 17:38 | 40.24531 | 26.26249 | 37076 ft | 480 kts | 133° |
| 2026-04-29 17:39 | 40.20143 | 26.32743 | 37073 ft | 480 kts | 133° |
| 2026-04-29 17:39 | 40.15723 | 26.39273 | 37074 ft | 479 kts | 133° |
| 2026-04-29 17:40 | 40.11216 | 26.45687 | 37075 ft | 478 kts | 136° |
| 2026-04-29 17:40 | 40.06462 | 26.51752 | 37073 ft | 478 kts | 138° |
| 2026-04-29 17:41 | 40.01663 | 26.57782 | 36690 ft | 483 kts | 137° |
| 2026-04-29 17:41 | 39.99260 | 26.60830 | 36200 ft | 481 kts | 137° |
| 2026-04-29 17:41 | 39.96869 | 26.63877 | 35612 ft | 480 kts | 137° |
| 2026-04-29 17:41 | 39.94490 | 26.66917 | 35125 ft | 477 kts | 137° |
| 2026-04-29 17:42 | 39.92129 | 26.69933 | 34715 ft | 473 kts | 137° |
| 2026-04-29 17:42 | 39.89791 | 26.72918 | 34291 ft | 469 kts | 137° |
| 2026-04-29 17:42 | 39.87467 | 26.75879 | 33831 ft | 466 kts | 137° |
| 2026-04-29 17:42 | 39.85158 | 26.78816 | 33357 ft | 462 kts | 137° |
| 2026-04-29 17:43 | 39.82869 | 26.81726 | 32913 ft | 458 kts | 137° |
| 2026-04-29 17:43 | 39.80602 | 26.84605 | 32499 ft | 454 kts | 137° |
| 2026-04-29 17:43 | 39.78353 | 26.87457 | 32071 ft | 450 kts | 137° |
| 2026-04-29 17:43 | 39.76116 | 26.90285 | 31666 ft | 446 kts | 137° |
| 2026-04-29 17:44 | 39.73895 | 26.93041 | 31357 ft | 439 kts | 138° |
| 2026-04-29 17:44 | 39.71683 | 26.95754 | 30932 ft | 436 kts | 138° |
| 2026-04-29 17:44 | 39.69483 | 26.98444 | 30548 ft | 431 kts | 138° |
| 2026-04-29 17:44 | 39.67309 | 27.01103 | 30161 ft | 428 kts | 138° |
| 2026-04-29 17:45 | 39.65149 | 27.03748 | 29698 ft | 425 kts | 138° |
| 2026-04-29 17:45 | 39.63011 | 27.06368 | 29262 ft | 421 kts | 138° |
| 2026-04-29 17:45 | 39.60892 | 27.08964 | 28857 ft | 417 kts | 138° |
| 2026-04-29 17:45 | 39.58790 | 27.11539 | 28445 ft | 414 kts | 138° |
| 2026-04-29 17:46 | 39.56711 | 27.14084 | 28037 ft | 410 kts | 138° |
| 2026-04-29 17:46 | 39.54668 | 27.16580 | 27652 ft | 407 kts | 138° |
| 2026-04-29 17:46 | 39.52611 | 27.19076 | 27242 ft | 403 kts | 141° |
| 2026-04-29 17:46 | 39.50270 | 27.20960 | 26865 ft | 393 kts | 162° |
| 2026-04-29 17:47 | 39.47661 | 27.21784 | 26563 ft | 381 kts | 179° |
| 2026-04-29 17:47 | 39.45057 | 27.21663 | 26225 ft | 371 kts | 191° |
| 2026-04-29 17:47 | 39.42509 | 27.21215 | 25840 ft | 368 kts | 192° |
| 2026-04-29 17:47 | 39.39985 | 27.20712 | 25459 ft | 366 kts | 193° |
| 2026-04-29 17:48 | 39.37479 | 27.20207 | 25086 ft | 364 kts | 193° |
| 2026-04-29 17:48 | 39.34983 | 27.19716 | 24708 ft | 363 kts | 192° |
| 2026-04-29 17:48 | 39.32489 | 27.19239 | 24330 ft | 361 kts | 192° |
| 2026-04-29 17:48 | 39.30005 | 27.18773 | 23965 ft | 360 kts | 192° |
| 2026-04-29 17:49 | 39.27530 | 27.18317 | 23563 ft | 359 kts | 192° |
| 2026-04-29 17:49 | 39.25061 | 27.17865 | 23137 ft | 357 kts | 192° |
| 2026-04-29 17:49 | 39.22607 | 27.17418 | 22724 ft | 355 kts | 192° |
| 2026-04-29 17:49 | 39.20164 | 27.16974 | 22346 ft | 353 kts | 192° |
| 2026-04-29 17:50 | 39.17742 | 27.16534 | 21967 ft | 350 kts | 191° |
| 2026-04-29 17:50 | 39.15338 | 27.16098 | 21598 ft | 348 kts | 191° |
| 2026-04-29 17:50 | 39.12942 | 27.15663 | 21219 ft | 346 kts | 191° |
| 2026-04-29 17:50 | 39.10568 | 27.15233 | 20856 ft | 344 kts | 191° |
| 2026-04-29 17:51 | 39.08202 | 27.14804 | 20493 ft | 342 kts | 191° |
| 2026-04-29 17:51 | 39.05854 | 27.14378 | 20134 ft | 340 kts | 191° |
| 2026-04-29 17:51 | 39.03519 | 27.13955 | 19775 ft | 338 kts | 191° |
| 2026-04-29 17:51 | 39.01194 | 27.13535 | 19421 ft | 337 kts | 191° |
| 2026-04-29 17:52 | 38.98877 | 27.13115 | 19074 ft | 335 kts | 191° |
| 2026-04-29 17:52 | 38.97353 | 27.12833 | 18862 ft | 333 kts | 191° |
| 2026-04-29 17:52 | 38.94292 | 27.12264 | 18403 ft | 331 kts | 191° |
| 2026-04-29 17:52 | 38.92021 | 27.11841 | 18000 ft | 330 kts | 191° |
| 2026-04-29 17:53 | 38.89749 | 27.11417 | 17624 ft | 328 kts | 191° |
| 2026-04-29 17:53 | 38.87496 | 27.10998 | 17272 ft | 326 kts | 191° |
| 2026-04-29 17:53 | 38.85255 | 27.10581 | 16905 ft | 325 kts | 191° |
| 2026-04-29 17:53 | 38.83023 | 27.10167 | 16557 ft | 323 kts | 191° |
| 2026-04-29 17:54 | 38.80803 | 27.09755 | 16200 ft | 322 kts | 190° |
| 2026-04-29 17:54 | 38.78597 | 27.09346 | 15839 ft | 320 kts | 190° |
| 2026-04-29 17:54 | 38.76397 | 27.08938 | 15515 ft | 319 kts | 190° |
| 2026-04-29 17:54 | 38.74208 | 27.08533 | 15170 ft | 317 kts | 190° |
| 2026-04-29 17:55 | 38.72024 | 27.08129 | 14824 ft | 316 kts | 190° |
| 2026-04-29 17:55 | 38.69852 | 27.07728 | 14484 ft | 315 kts | 190° |
| 2026-04-29 17:55 | 38.67685 | 27.07327 | 14143 ft | 315 kts | 190° |
| 2026-04-29 17:55 | 38.65550 | 27.06933 | 13799 ft | 313 kts | 190° |
| 2026-04-29 17:56 | 38.63365 | 27.06530 | 13404 ft | 312 kts | 189° |
| 2026-04-29 17:56 | 38.61249 | 27.06140 | 13046 ft | 311 kts | 189° |
| 2026-04-29 17:56 | 38.59114 | 27.05747 | 12693 ft | 309 kts | 189° |
| 2026-04-29 17:56 | 38.56987 | 27.05355 | 12332 ft | 308 kts | 189° |
| 2026-04-29 17:57 | 38.54875 | 27.04966 | 12000 ft | 306 kts | 189° |
| 2026-04-29 17:57 | 38.52769 | 27.04578 | 11651 ft | 305 kts | 189° |
| 2026-04-29 17:57 | 38.50674 | 27.04193 | 11315 ft | 304 kts | 189° |
| 2026-04-29 17:57 | 38.49262 | 27.03934 | 11090 ft | 303 kts | 189° |
| 2026-04-29 17:58 | 38.46506 | 27.03428 | 10636 ft | 302 kts | 189° |
| 2026-04-29 17:58 | 38.44429 | 27.03047 | 10348 ft | 300 kts | 189° |
| 2026-04-29 17:58 | 38.42399 | 27.02674 | 10207 ft | 292 kts | 189° |
| 2026-04-29 17:58 | 38.40408 | 27.02310 | 10068 ft | 284 kts | 189° |
| 2026-04-29 17:59 | 38.38457 | 27.01952 | 9791 ft | 283 kts | 189° |
| 2026-04-29 17:59 | 38.36507 | 27.01594 | 9487 ft | 283 kts | 189° |
| 2026-04-29 17:59 | 38.34562 | 27.01239 | 9184 ft | 282 kts | 188° |
| 2026-04-29 17:59 | 38.32623 | 27.00889 | 8899 ft | 281 kts | 186° |
| 2026-04-29 18:00 | 38.30693 | 27.01102 | 8594 ft | 280 kts | 162° |
| 2026-04-29 18:00 | 38.28847 | 27.01870 | 8316 ft | 279 kts | 160° |
| 2026-04-29 18:00 | 38.27011 | 27.02666 | 8024 ft | 278 kts | 160° |
| 2026-04-29 18:00 | 38.25183 | 27.03458 | 7736 ft | 277 kts | 160° |
| 2026-04-29 18:01 | 38.23362 | 27.04241 | 7447 ft | 277 kts | 160° |
| 2026-04-29 18:01 | 38.21536 | 27.05021 | 7161 ft | 276 kts | 160° |
| 2026-04-29 18:01 | 38.19718 | 27.05794 | 6876 ft | 276 kts | 160° |
| 2026-04-29 18:01 | 38.17898 | 27.06565 | 6574 ft | 275 kts | 160° |
| 2026-04-29 18:02 | 38.16087 | 27.07330 | 6294 ft | 274 kts | 160° |
| 2026-04-29 18:02 | 38.14278 | 27.08093 | 5998 ft | 274 kts | 160° |
| 2026-04-29 18:02 | 38.12473 | 27.08853 | 5721 ft | 273 kts | 159° |
| 2026-04-29 18:02 | 38.10669 | 27.09612 | 5433 ft | 273 kts | 159° |
| 2026-04-29 18:03 | 38.08888 | 27.10361 | 5307 ft | 267 kts | 159° |
| 2026-04-29 18:03 | 38.07145 | 27.11094 | 5185 ft | 260 kts | 158° |
| 2026-04-29 18:03 | 38.05656 | 27.12250 | 5047 ft | 246 kts | 129° |
| 2026-04-29 18:03 | 38.04848 | 27.14066 | 4885 ft | 233 kts | 103° |
| 2026-04-29 18:04 | 38.04674 | 27.16087 | 4676 ft | 231 kts | 82° |
| 2026-04-29 18:04 | 38.04956 | 27.18093 | 4462 ft | 230 kts | 74° |
| 2026-04-29 18:04 | 38.05364 | 27.20046 | 4206 ft | 228 kts | 65° |
| 2026-04-29 18:04 | 38.06318 | 27.21578 | 3975 ft | 220 kts | 32° |
| 2026-04-29 18:05 | 38.07721 | 27.22079 | 3763 ft | 212 kts | 359° |
| 2026-04-29 18:05 | 38.09146 | 27.21778 | 3573 ft | 203 kts | 349° |
| 2026-04-29 18:05 | 38.10470 | 27.21369 | 3386 ft | 188 kts | 348° |
| 2026-04-29 18:05 | 38.11698 | 27.20980 | 3260 ft | 174 kts | 349° |
| 2026-04-29 18:06 | 38.12815 | 27.20634 | 3163 ft | 158 kts | 349° |
| 2026-04-29 18:06 | 38.13845 | 27.20321 | 2963 ft | 147 kts | 349° |
| 2026-04-29 18:06 | 38.14807 | 27.20030 | 2764 ft | 145 kts | 349° |
| 2026-04-29 18:06 | 38.15788 | 27.19737 | 2577 ft | 143 kts | 349° |
| 2026-04-29 18:07 | 38.16759 | 27.19427 | 2420 ft | 144 kts | 348° |
| 2026-04-29 18:07 | 38.17729 | 27.19115 | 2270 ft | 144 kts | 349° |
| 2026-04-29 18:07 | 38.18712 | 27.18839 | 2154 ft | 145 kts | 349° |
| 2026-04-29 18:07 | 38.19705 | 27.18561 | 2057 ft | 146 kts | 349° |
| 2026-04-29 18:08 | 38.20700 | 27.18268 | 1878 ft | 147 kts | 349° |
| 2026-04-29 18:08 | 38.21684 | 27.17975 | 1644 ft | 144 kts | 347° |
| 2026-04-29 18:08 | 38.22651 | 27.17675 | 1436 ft | 143 kts | 347° |
| 2026-04-29 18:08 | 38.23620 | 27.17392 | 1215 ft | 143 kts | 348° |
| 2026-04-29 18:09 | 38.24584 | 27.17106 | 995 ft | 142 kts | 347° |
| 2026-04-29 18:09 | 38.25544 | 27.16806 | 837 ft | 142 kts | 346° |
| 2026-04-29 18:09 | 38.26521 | 27.16493 | 678 ft | 147 kts | 348° |
| 2026-04-29 18:09 | 38.27502 | 27.16215 | 472 ft | 142 kts | 348° |
| 2026-04-29 18:10 | 38.28433 | 27.15935 | 384 ft | 121 kts | 346° |
| 2026-04-29 18:10 | 38.28879 | 27.15802 | 389 ft | 46 kts | 346° |
| 2026-04-29 18:10 | 38.29170 | 27.15713 | 393 ft | 40 kts | 347° |
| 2026-04-29 18:10 | 38.29407 | 27.15639 | 397 ft | 27 kts | 329° |
| 2026-04-29 18:11 | 38.29410 | 27.15549 | 399 ft | 0 kts | 262° |
| 2026-04-29 18:11 | 38.29409 | 27.15546 | 399 ft | 0 kts | 262° |
| 2026-04-29 18:13 | 38.29409 | 27.15545 | 399 ft | 1 kts | 262° |
| 2026-04-29 18:13 | 38.29402 | 27.15497 | 396 ft | 12 kts | 257° |
| 2026-04-29 18:13 | 38.29377 | 27.15364 | 397 ft | 13 kts | 256° |
| 2026-04-29 18:14 | 38.29360 | 27.15279 | 397 ft | 9 kts | 256° |
| 2026-04-29 18:14 | 38.29346 | 27.15211 | 396 ft | 6 kts | 257° |
| 2026-04-29 18:14 | 38.29340 | 27.15176 | 399 ft | 5 kts | 256° |
| 2026-04-29 18:14 | 38.29355 | 27.15129 | 398 ft | 6 kts | 308° |
| 2026-04-29 18:15 | 38.29356 | 27.15073 | 399 ft | 7 kts | 258° |
| 2026-04-29 18:15 | 38.29348 | 27.15026 | 396 ft | 0 kts | 256° |